< < Back
Terminal Aerodrome Forecast


Current Version              Previous Versions:   1  2  3  4  5  6  7  8  9  

Terminal Aerodrome Forecast

083
FTUS42 KTAE 281209 AAA
TAFABY
TAF AMD
KABY 281209Z 2812/2912 00000KT 3SM BR OVC004
     FM281400 20010KT P6SM SCT030
     FM281600 24011KT P6SM VCTS BKN040CB
      TEMPO 2816/2820 VRB10G20KT 3SM TSRA
     FM290000 23005KT P6SM SCT040 BKN100=



Latest METAR

426
SAUS70 KWBC 291000 RRF
MTRABY
METAR KABY 290953Z AUTO 00000KT 4SM BR CLR 20/19 A3001 RMK AO2 SLP161
T02000189


USA.gov is the U.S. government's official web portal to all federal, state and local government web resources and services.